Nichioh Maru — JD3267 — position and weather

sailwx.info

Track history (hours):
 
Tides and Currents Weather Stations Pressure Air Temp Water Temp Dewpoint Dewpoint Depression Visibility Wind Speed Wind Dir Waves Ship Positions

Nichioh Maru

Last reported at 2015-Jul-06 02:33 UTC. Time now 2015-Jul-08 06:29 UTC.
Position N 34°37' E 135°02'.

Length 170 m; draft 6.5 m.

Type: Cargo ship. MMSI: 431003232.

Date/timePositionNaut miles runAvg speedWind from/ knotsBaromVisibWave heightAir tempDewpointWater temp
2015-Jul-06 02:33N 34°37' E 135°02'1010.1
2015-Jul-06 01:33N 34°41' E 135°13'0 0.0
2015-Jul-06 00:30N 34°41' E 135°13'0 0.0
2015-Jul-05 23:24N 34°41' E 135°13'2 1.8
2015-Jul-05 22:31N 34°40' E 135°15'9 9.8
2015-Jul-05 21:33N 34°31' E 135°12'1414.0
2015-Jul-05 20:33N 34°20' E 135°01'1616.3
2015-Jul-05 19:34N 34°04' E 134°59'176 6.4
2015-Jul-04 16:17N 34°33' E 138°29'5113.2
2015-Jul-04 12:27N 34°56' E 139°24'1314.4
2015-Jul-04 11:33N 35°03' E 139°37'1313.4
2015-Jul-04 10:33N 35°14' E 139°46'1110.6
2015-Jul-04 09:33N 35°24' E 139°43'7 6.6
2015-Jul-04 08:33N 35°30' E 139°46'0 0.0
2015-Jul-04 07:33N 35°30' E 139°46'0 0.0
2015-Jul-04 06:33N 35°30' E 139°46'0 0.0
2015-Jul-04 05:33N 35°30' E 139°46'0 0.0
2015-Jul-04 04:33N 35°30' E 139°46'5 5.1
2015-Jul-04 03:34N 35°25' E 139°46'8 8.2
2015-Jul-04 02:33N 35°19' E 139°39'0 0.4
2015-Jul-04 01:32N 35°19' E 139°39'0 0.0
2015-Jul-04 00:32N 35°19' E 139°39'0 0.0
2015-Jul-03 23:32N 35°19' E 139°39'2 2.4
2015-Jul-03 22:33N 35°19' E 139°42'1110.6
2015-Jul-03 21:33N 35°09' E 139°47'1212.5
2015-Jul-03 20:33N 34°59' E 139°36'23614.7
2015-Jul-03 04:32N 34°04' E 134°59'2020.6
2015-Jul-03 03:33N 34°24' E 135°02'1919.0
2015-Jul-03 02:33N 34°39' E 135°16'3 2.5
2015-Jul-03 01:26N 34°41' E 135°13'0 0.0
2015-Jul-03 00:32N 34°41' E 135°13'0 0.0
2015-Jul-02 23:32N 34°41' E 135°13'1 1.2
2015-Jul-02 22:33N 34°40' E 135°15'4 3.4
2015-Jul-02 21:28N 34°37' E 135°16'0 0.0
2015-Jul-02 20:28N 34°37' E 135°16'0 0.0
2015-Jul-02 19:28N 34°37' E 135°16'0 0.0
2015-Jul-02 18:28N 34°37' E 135°16'0 0.1
2015-Jul-02 17:28N 34°37' E 135°16'0 0.1
2015-Jul-02 16:28N 34°37' E 135°16'0 0.1
2015-Jul-02 15:28N 34°37' E 135°16'0 0.1
2015-Jul-02 14:22N 34°37' E 135°16'0 0.0
2015-Jul-02 13:28N 34°37' E 135°16'0 0.0
2015-Jul-02 12:28N 34°37' E 135°16'0 0.0
2015-Jul-02 11:28N 34°37' E 135°16'0 0.0
2015-Jul-02 10:16N 34°37' E 135°16'0 0.0
2015-Jul-02 09:28N 34°37' E 135°16'0 0.0
2015-Jul-02 08:28N 34°37' E 135°16'0 0.0
2015-Jul-02 07:28N 34°37' E 135°16'8 9.1
2015-Jul-02 06:33N 34°35' E 135°06'  
2015-Jun-29 03:07N 34°35' E 134°50'916.6
2015-Jun-29 02:33N 34°37' E 135°01'1111.3
2015-Jun-29 01:33N 34°41' E 135°14'1 0.6
2015-Jun-29 00:29N 34°41' E 135°13'0 0.0
2015-Jun-28 23:29N 34°41' E 135°13'3 3.5
2015-Jun-28 22:34N 34°38' E 135°16'1818.0
2015-Jun-28 21:33N 34°23' E 135°04'2019.7
2015-Jun-28 20:33N 34°03' E 135°00'180 6.6
2015-Jun-27 17:18N 34°33' E 138°36'4612.0
2015-Jun-27 13:28N 34°56' E 139°24'1314.0
2015-Jun-27 12:33N 35°03' E 139°37'1313.0
2015-Jun-27 11:33N 35°14' E 139°46'1212.1
2015-Jun-27 10:34N 35°26' E 139°44'5 4.6
2015-Jun-27 09:31N 35°30' E 139°46'0 0.0
2015-Jun-27 08:31N 35°30' E 139°46'0 0.0
2015-Jun-27 07:31N 35°30' E 139°46'0 0.0
2015-Jun-27 06:31N 35°30' E 139°46'0 0.0
2015-Jun-27 05:31N 35°30' E 139°46'0 0.0
2015-Jun-27 04:31N 35°30' E 139°46'3 3.1
2015-Jun-27 03:34N 35°29' E 139°42'1010.2
2015-Jun-27 02:33N 35°19' E 139°41'2 1.7
2015-Jun-27 01:33N 35°19' E 139°39'0 0.0
2015-Jun-27 00:33N 35°19' E 139°39'0 0.0
2015-Jun-26 23:30N 35°19' E 139°39'3 3.5
2015-Jun-26 22:33N 35°18' E 139°43'1010.2
2015-Jun-26 21:33N 35°09' E 139°46'1313.2
2015-Jun-26 20:33N 34°58' E 139°36'6515.0
2015-Jun-26 16:16N 34°24' E 138°29'17514.9
2015-Jun-26 04:30N 34°02' E 134°58'1919.2
2015-Jun-26 03:30N 34°21' E 135°00'1819.4
2015-Jun-26 02:33N 34°35' E 135°14'  
Track history (hours):
 
Tides and Currents Weather Stations Pressure Air Temp Water Temp Dewpoint Dewpoint Depression Visibility Wind Speed Wind Dir Waves Ship Positions

Nichioh Maru

Last reported at 2015-Jul-06 02:33 UTC. Time now 2015-Jul-08 06:29 UTC.
Position N 34°37' E 135°02'.

Length 170 m; draft 6.5 m.

Type: Cargo ship. MMSI: 431003232.

Date/timePositionNaut miles runAvg speedWind from/ knotsBaromVisibWave heightAir tempDewpointWater temp
2015-Jul-06 02:33N 34°37' E 135°02'1010.1
2015-Jul-06 01:33N 34°41' E 135°13'0 0.0
2015-Jul-06 00:30N 34°41' E 135°13'0 0.0
2015-Jul-05 23:24N 34°41' E 135°13'2 1.8
2015-Jul-05 22:31N 34°40' E 135°15'9 9.8
2015-Jul-05 21:33N 34°31' E 135°12'1414.0
2015-Jul-05 20:33N 34°20' E 135°01'1616.3
2015-Jul-05 19:34N 34°04' E 134°59'176 6.4
2015-Jul-04 16:17N 34°33' E 138°29'5113.2
2015-Jul-04 12:27N 34°56' E 139°24'1314.4
2015-Jul-04 11:33N 35°03' E 139°37'1313.4
2015-Jul-04 10:33N 35°14' E 139°46'1110.6
2015-Jul-04 09:33N 35°24' E 139°43'7 6.6
2015-Jul-04 08:33N 35°30' E 139°46'0 0.0
2015-Jul-04 07:33N 35°30' E 139°46'0 0.0
2015-Jul-04 06:33N 35°30' E 139°46'0 0.0
2015-Jul-04 05:33N 35°30' E 139°46'0 0.0
2015-Jul-04 04:33N 35°30' E 139°46'5 5.1
2015-Jul-04 03:34N 35°25' E 139°46'8 8.2
2015-Jul-04 02:33N 35°19' E 139°39'0 0.4
2015-Jul-04 01:32N 35°19' E 139°39'0 0.0
2015-Jul-04 00:32N 35°19' E 139°39'0 0.0
2015-Jul-03 23:32N 35°19' E 139°39'2 2.4
2015-Jul-03 22:33N 35°19' E 139°42'1110.6
2015-Jul-03 21:33N 35°09' E 139°47'1212.5
2015-Jul-03 20:33N 34°59' E 139°36'23614.7
2015-Jul-03 04:32N 34°04' E 134°59'2020.6
2015-Jul-03 03:33N 34°24' E 135°02'1919.0
2015-Jul-03 02:33N 34°39' E 135°16'3 2.5
2015-Jul-03 01:26N 34°41' E 135°13'0 0.0
2015-Jul-03 00:32N 34°41' E 135°13'0 0.0
2015-Jul-02 23:32N 34°41' E 135°13'1 1.2
2015-Jul-02 22:33N 34°40' E 135°15'4 3.4
2015-Jul-02 21:28N 34°37' E 135°16'0 0.0
2015-Jul-02 20:28N 34°37' E 135°16'0 0.0
2015-Jul-02 19:28N 34°37' E 135°16'0 0.0
2015-Jul-02 18:28N 34°37' E 135°16'0 0.1
2015-Jul-02 17:28N 34°37' E 135°16'0 0.1
2015-Jul-02 16:28N 34°37' E 135°16'0 0.1
2015-Jul-02 15:28N 34°37' E 135°16'0 0.1
2015-Jul-02 14:22N 34°37' E 135°16'0 0.0
2015-Jul-02 13:28N 34°37' E 135°16'0 0.0
2015-Jul-02 12:28N 34°37' E 135°16'0 0.0
2015-Jul-02 11:28N 34°37' E 135°16'0 0.0
2015-Jul-02 10:16N 34°37' E 135°16'0 0.0
2015-Jul-02 09:28N 34°37' E 135°16'0 0.0
2015-Jul-02 08:28N 34°37' E 135°16'0 0.0
2015-Jul-02 07:28N 34°37' E 135°16'8 9.1
2015-Jul-02 06:33N 34°35' E 135°06'  
2015-Jun-29 03:07N 34°35' E 134°50'916.6
2015-Jun-29 02:33N 34°37' E 135°01'1111.3
2015-Jun-29 01:33N 34°41' E 135°14'1 0.6
2015-Jun-29 00:29N 34°41' E 135°13'0 0.0
2015-Jun-28 23:29N 34°41' E 135°13'3 3.5
2015-Jun-28 22:34N 34°38' E 135°16'1818.0
2015-Jun-28 21:33N 34°23' E 135°04'2019.7
2015-Jun-28 20:33N 34°03' E 135°00'180 6.6
2015-Jun-27 17:18N 34°33' E 138°36'4612.0
2015-Jun-27 13:28N 34°56' E 139°24'1314.0
2015-Jun-27 12:33N 35°03' E 139°37'1313.0
2015-Jun-27 11:33N 35°14' E 139°46'1212.1
2015-Jun-27 10:34N 35°26' E 139°44'5 4.6
2015-Jun-27 09:31N 35°30' E 139°46'0 0.0
2015-Jun-27 08:31N 35°30' E 139°46'0 0.0
2015-Jun-27 07:31N 35°30' E 139°46'0 0.0
2015-Jun-27 06:31N 35°30' E 139°46'0 0.0
2015-Jun-27 05:31N 35°30' E 139°46'0 0.0
2015-Jun-27 04:31N 35°30' E 139°46'3 3.1
2015-Jun-27 03:34N 35°29' E 139°42'1010.2
2015-Jun-27 02:33N 35°19' E 139°41'2 1.7
2015-Jun-27 01:33N 35°19' E 139°39'0 0.0
2015-Jun-27 00:33N 35°19' E 139°39'0 0.0
2015-Jun-26 23:30N 35°19' E 139°39'3 3.5
2015-Jun-26 22:33N 35°18' E 139°43'1010.2
2015-Jun-26 21:33N 35°09' E 139°46'1313.2
2015-Jun-26 20:33N 34°58' E 139°36'6515.0
2015-Jun-26 16:16N 34°24' E 138°29'17514.9
2015-Jun-26 04:30N 34°02' E 134°58'1919.2
2015-Jun-26 03:30N 34°21' E 135°00'1819.4
2015-Jun-26 02:33N 34°35' E 135°14'  

Dump ship's entire track history